Terminal Aerodrome Forecast
Issued by NWS Charleston, WV

Current Version | Previous Version | Text Only | Print | Product List | Glossary Off
Versions: 1 2 3 4 5 6 7 8 9 10 11 12 13 14 15 16 17 18 19 20 21 22 23 24 25 26 27

000
FTUS41 KRLX 280200 AAA
TAFBKW
TAF AMD
KBKW 280213Z 2802/2824 33010KT 6SM -SHSN BKN015
     FM280600 32006KT P6SM BKN015
     FM281200 32005KT P6SM SCT015
     FM281700 32006KT P6SM SCT200=

USA.gov is the U.S. government's official web portal to all federal, state and local government web resources and services.